sensor_id;sensor_type;location;lat;lon;timestamp;P1;durP1;ratioP1;P2;durP2;ratioP2
6823;SDS011;58633;49.470;11.004;2023-08-30T00:00:16;4.63;;;3.92;;
6823;SDS011;58633;49.470;11.004;2023-08-30T00:02:43;4.35;;;3.60;;
6823;SDS011;58633;49.470;11.004;2023-08-30T00:05:09;5.60;;;3.92;;
6823;SDS011;58633;49.470;11.004;2023-08-30T00:07:35;4.22;;;3.38;;
6823;SDS011;58633;49.470;11.004;2023-08-30T00:10:01;6.25;;;4.10;;
6823;SDS011;58633;49.470;11.004;2023-08-30T00:12:27;3.95;;;3.55;;
6823;SDS011;58633;49.470;11.004;2023-08-30T00:14:53;4.25;;;3.85;;
6823;SDS011;58633;49.470;11.004;2023-08-30T00:17:18;4.38;;;3.40;;
6823;SDS011;58633;49.470;11.004;2023-08-30T00:19:44;3.80;;;3.50;;
6823;SDS011;58633;49.470;11.004;2023-08-30T00:22:10;4.20;;;3.80;;
6823;SDS011;58633;49.470;11.004;2023-08-30T00:24:37;4.25;;;3.83;;
6823;SDS011;58633;49.470;11.004;2023-08-30T00:27:03;4.72;;;3.80;;
6823;SDS011;58633;49.470;11.004;2023-08-30T00:29:29;4.05;;;3.63;;
6823;SDS011;58633;49.470;11.004;2023-08-30T00:31:54;4.72;;;3.63;;
6823;SDS011;58633;49.470;11.004;2023-08-30T00:34:20;4.20;;;3.50;;
6823;SDS011;58633;49.470;11.004;2023-08-30T00:36:46;4.30;;;3.40;;
6823;SDS011;58633;49.470;11.004;2023-08-30T00:39:11;3.85;;;3.50;;
6823;SDS011;58633;49.470;11.004;2023-08-30T00:41:38;3.75;;;3.42;;
6823;SDS011;58633;49.470;11.004;2023-08-30T00:44:03;3.60;;;3.30;;
6823;SDS011;58633;49.470;11.004;2023-08-30T00:46:29;4.03;;;3.63;;
6823;SDS011;58633;49.470;11.004;2023-08-30T00:48:55;4.50;;;3.22;;
6823;SDS011;58633;49.470;11.004;2023-08-30T00:51:21;3.88;;;3.58;;
6823;SDS011;58633;49.470;11.004;2023-08-30T00:53:47;4.65;;;3.58;;
6823;SDS011;58633;49.470;11.004;2023-08-30T00:56:14;4.43;;;3.40;;
6823;SDS011;58633;49.470;11.004;2023-08-30T00:58:40;5.50;;;3.50;;
6823;SDS011;58633;49.470;11.004;2023-08-30T01:01:05;4.22;;;3.20;;
6823;SDS011;58633;49.470;11.004;2023-08-30T01:03:34;3.97;;;3.33;;
6823;SDS011;58633;49.470;11.004;2023-08-30T01:06:01;3.50;;;3.20;;
6823;SDS011;58633;49.470;11.004;2023-08-30T01:08:27;4.05;;;3.10;;
6823;SDS011;58633;49.470;11.004;2023-08-30T01:10:59;3.20;;;3.00;;
6823;SDS011;58633;49.470;11.004;2023-08-30T01:13:56;2.85;;;2.65;;
6823;SDS011;58633;49.470;11.004;2023-08-30T01:16:25;3.15;;;2.83;;
6823;SDS011;58633;49.470;11.004;2023-08-30T01:18:52;4.25;;;3.15;;
6823;SDS011;58633;49.470;11.004;2023-08-30T01:21:25;5.07;;;3.70;;
6823;SDS011;58633;49.470;11.004;2023-08-30T01:24:05;3.92;;;3.00;;
6823;SDS011;58633;49.470;11.004;2023-08-30T01:29:25;2.95;;;2.75;;
6823;SDS011;58633;49.470;11.004;2023-08-30T01:31:51;2.80;;;2.60;;
6823;SDS011;58633;49.470;11.004;2023-08-30T01:34:18;3.28;;;2.97;;
6823;SDS011;58633;49.470;11.004;2023-08-30T01:36:44;3.05;;;2.85;;
6823;SDS011;58633;49.470;11.004;2023-08-30T01:39:10;3.25;;;2.95;;
6823;SDS011;58633;49.470;11.004;2023-08-30T01:41:37;8.93;;;3.13;;
6823;SDS011;58633;49.470;11.004;2023-08-30T01:44:05;3.33;;;3.03;;
6823;SDS011;58633;49.470;11.004;2023-08-30T01:46:33;4.13;;;2.80;;
6823;SDS011;58633;49.470;11.004;2023-08-30T01:49:00;3.22;;;2.92;;
6823;SDS011;58633;49.470;11.004;2023-08-30T01:51:27;3.58;;;3.20;;
6823;SDS011;58633;49.470;11.004;2023-08-30T01:53:54;3.33;;;3.03;;
6823;SDS011;58633;49.470;11.004;2023-08-30T01:56:21;3.40;;;3.20;;
6823;SDS011;58633;49.470;11.004;2023-08-30T01:58:47;3.20;;;2.80;;
6823;SDS011;58633;49.470;11.004;2023-08-30T02:01:12;3.20;;;2.90;;
6823;SDS011;58633;49.470;11.004;2023-08-30T02:03:38;3.17;;;2.80;;
6823;SDS011;58633;49.470;11.004;2023-08-30T02:06:05;4.18;;;3.10;;
6823;SDS011;58633;49.470;11.004;2023-08-30T02:09:04;3.38;;;3.10;;
6823;SDS011;58633;49.470;11.004;2023-08-30T02:11:37;3.30;;;3.00;;
6823;SDS011;58633;49.470;11.004;2023-08-30T02:14:04;3.75;;;2.90;;
6823;SDS011;58633;49.470;11.004;2023-08-30T02:16:32;3.80;;;3.00;;
6823;SDS011;58633;49.470;11.004;2023-08-30T02:18:59;3.33;;;2.95;;
6823;SDS011;58633;49.470;11.004;2023-08-30T02:21:24;2.97;;;2.67;;
6823;SDS011;58633;49.470;11.004;2023-08-30T02:23:51;3.20;;;3.00;;
6823;SDS011;58633;49.470;11.004;2023-08-30T02:26:20;3.30;;;3.00;;
6823;SDS011;58633;49.470;11.004;2023-08-30T02:28:46;3.28;;;2.97;;
6823;SDS011;58633;49.470;11.004;2023-08-30T02:31:12;3.42;;;3.10;;
6823;SDS011;58633;49.470;11.004;2023-08-30T02:33:37;4.25;;;2.90;;
6823;SDS011;58633;49.470;11.004;2023-08-30T02:36:03;3.35;;;3.05;;
6823;SDS011;58633;49.470;11.004;2023-08-30T02:38:29;3.63;;;3.28;;
6823;SDS011;58633;49.470;11.004;2023-08-30T02:40:55;3.40;;;3.10;;
6823;SDS011;58633;49.470;11.004;2023-08-30T02:43:20;3.72;;;3.42;;
6823;SDS011;58633;49.470;11.004;2023-08-30T02:45:46;3.50;;;3.20;;
6823;SDS011;58633;49.470;11.004;2023-08-30T02:48:12;4.10;;;3.30;;
6823;SDS011;58633;49.470;11.004;2023-08-30T02:50:39;4.50;;;3.15;;
6823;SDS011;58633;49.470;11.004;2023-08-30T02:53:04;4.05;;;2.92;;
6823;SDS011;58633;49.470;11.004;2023-08-30T02:55:33;3.95;;;3.00;;
6823;SDS011;58633;49.470;11.004;2023-08-30T02:57:59;4.18;;;3.40;;
6823;SDS011;58633;49.470;11.004;2023-08-30T03:00:24;3.38;;;3.17;;
6823;SDS011;58633;49.470;11.004;2023-08-30T03:02:50;3.22;;;3.03;;
6823;SDS011;58633;49.470;11.004;2023-08-30T03:05:15;4.57;;;3.25;;
6823;SDS011;58633;49.470;11.004;2023-08-30T03:07:42;3.40;;;3.10;;
6823;SDS011;58633;49.470;11.004;2023-08-30T03:10:08;3.10;;;2.90;;
6823;SDS011;58633;49.470;11.004;2023-08-30T03:12:34;3.50;;;3.20;;
6823;SDS011;58633;49.470;11.004;2023-08-30T03:14:59;3.40;;;3.08;;
6823;SDS011;58633;49.470;11.004;2023-08-30T03:17:25;5.70;;;3.25;;
6823;SDS011;58633;49.470;11.004;2023-08-30T03:19:53;3.35;;;3.10;;
6823;SDS011;58633;49.470;11.004;2023-08-30T03:22:19;4.35;;;3.90;;
6823;SDS011;58633;49.470;11.004;2023-08-30T03:24:45;6.43;;;3.05;;
6823;SDS011;58633;49.470;11.004;2023-08-30T03:27:11;3.38;;;3.00;;
6823;SDS011;58633;49.470;11.004;2023-08-30T03:29:36;3.47;;;3.20;;
6823;SDS011;58633;49.470;11.004;2023-08-30T03:32:02;3.80;;;3.50;;
6823;SDS011;58633;49.470;11.004;2023-08-30T03:34:28;3.58;;;3.28;;
6823;SDS011;58633;49.470;11.004;2023-08-30T03:36:53;4.07;;;3.60;;
6823;SDS011;58633;49.470;11.004;2023-08-30T03:39:22;3.50;;;3.20;;
6823;SDS011;58633;49.470;11.004;2023-08-30T03:41:49;3.60;;;3.38;;
6823;SDS011;58633;49.470;11.004;2023-08-30T03:44:15;3.75;;;3.50;;
6823;SDS011;58633;49.470;11.004;2023-08-30T03:46:40;5.13;;;3.70;;
6823;SDS011;58633;49.470;11.004;2023-08-30T03:49:06;6.57;;;3.97;;
6823;SDS011;58633;49.470;11.004;2023-08-30T03:51:32;4.38;;;3.75;;
6823;SDS011;58633;49.470;11.004;2023-08-30T03:53:57;4.45;;;4.05;;
6823;SDS011;58633;49.470;11.004;2023-08-30T03:56:23;5.28;;;4.18;;
6823;SDS011;58633;49.470;11.004;2023-08-30T03:58:48;4.90;;;4.47;;
6823;SDS011;58633;49.470;11.004;2023-08-30T04:01:14;5.07;;;4.57;;
6823;SDS011;58633;49.470;11.004;2023-08-30T04:03:40;5.13;;;4.25;;
6823;SDS011;58633;49.470;11.004;2023-08-30T04:06:05;6.30;;;4.70;;
6823;SDS011;58633;49.470;11.004;2023-08-30T04:08:31;4.80;;;4.40;;
6823;SDS011;58633;49.470;11.004;2023-08-30T04:10:57;5.50;;;4.63;;
6823;SDS011;58633;49.470;11.004;2023-08-30T04:13:22;5.00;;;4.50;;
6823;SDS011;58633;49.470;11.004;2023-08-30T04:15:48;6.18;;;4.50;;
6823;SDS011;58633;49.470;11.004;2023-08-30T04:18:14;5.50;;;5.00;;
6823;SDS011;58633;49.470;11.004;2023-08-30T04:20:43;5.78;;;4.70;;
6823;SDS011;58633;49.470;11.004;2023-08-30T04:23:10;5.95;;;5.45;;
6823;SDS011;58633;49.470;11.004;2023-08-30T04:25:36;9.80;;;6.00;;
6823;SDS011;58633;49.470;11.004;2023-08-30T04:28:02;5.97;;;5.38;;
6823;SDS011;58633;49.470;11.004;2023-08-30T04:30:28;6.50;;;5.90;;
6823;SDS011;58633;49.470;11.004;2023-08-30T04:32:53;5.97;;;5.38;;
6823;SDS011;58633;49.470;11.004;2023-08-30T04:35:19;6.78;;;6.10;;
6823;SDS011;58633;49.470;11.004;2023-08-30T04:37:45;8.13;;;6.10;;
6823;SDS011;58633;49.470;11.004;2023-08-30T04:40:11;7.40;;;6.25;;
6823;SDS011;58633;49.470;11.004;2023-08-30T04:42:37;6.55;;;5.80;;
6823;SDS011;58633;49.470;11.004;2023-08-30T04:45:05;6.60;;;6.00;;
6823;SDS011;58633;49.470;11.004;2023-08-30T04:47:31;6.38;;;5.60;;
6823;SDS011;58633;49.470;11.004;2023-08-30T04:49:57;8.15;;;6.22;;
6823;SDS011;58633;49.470;11.004;2023-08-30T04:52:23;7.38;;;6.28;;
6823;SDS011;58633;49.470;11.004;2023-08-30T04:54:49;11.65;;;7.07;;
6823;SDS011;58633;49.470;11.004;2023-08-30T04:57:15;7.03;;;6.20;;
6823;SDS011;58633;49.470;11.004;2023-08-30T04:59:41;10.98;;;6.97;;
6823;SDS011;58633;49.470;11.004;2023-08-30T05:02:08;6.10;;;5.50;;
6823;SDS011;58633;49.470;11.004;2023-08-30T05:04:33;8.63;;;7.65;;
6823;SDS011;58633;49.470;11.004;2023-08-30T05:06:59;7.70;;;7.00;;
6823;SDS011;58633;49.470;11.004;2023-08-30T05:09:25;10.02;;;7.70;;
6823;SDS011;58633;49.470;11.004;2023-08-30T05:11:51;7.72;;;6.93;;
6823;SDS011;58633;49.470;11.004;2023-08-30T05:14:17;8.80;;;6.63;;
6823;SDS011;58633;49.470;11.004;2023-08-30T05:16:43;9.57;;;7.38;;
6823;SDS011;58633;49.470;11.004;2023-08-30T05:19:08;9.55;;;7.60;;
6823;SDS011;58633;49.470;11.004;2023-08-30T05:21:34;8.40;;;6.78;;
6823;SDS011;58633;49.470;11.004;2023-08-30T05:24:02;8.73;;;7.03;;
6823;SDS011;58633;49.470;11.004;2023-08-30T05:26:28;8.25;;;6.70;;
6823;SDS011;58633;49.470;11.004;2023-08-30T05:28:53;10.20;;;7.13;;
6823;SDS011;58633;49.470;11.004;2023-08-30T05:31:19;8.35;;;7.20;;
6823;SDS011;58633;49.470;11.004;2023-08-30T05:33:45;8.70;;;6.78;;
6823;SDS011;58633;49.470;11.004;2023-08-30T05:36:11;8.07;;;7.10;;
6823;SDS011;58633;49.470;11.004;2023-08-30T05:38:37;9.00;;;6.60;;
6823;SDS011;58633;49.470;11.004;2023-08-30T05:41:02;7.28;;;6.25;;
6823;SDS011;58633;49.470;11.004;2023-08-30T05:43:29;9.85;;;6.53;;
6823;SDS011;58633;49.470;11.004;2023-08-30T05:45:54;9.05;;;7.20;;
6823;SDS011;58633;49.470;11.004;2023-08-30T05:48:26;10.23;;;7.60;;
6823;SDS011;58633;49.470;11.004;2023-08-30T05:50:52;9.07;;;7.47;;
6823;SDS011;58633;49.470;11.004;2023-08-30T05:53:17;10.15;;;8.10;;
6823;SDS011;58633;49.470;11.004;2023-08-30T05:55:43;10.10;;;8.32;;
6823;SDS011;58633;49.470;11.004;2023-08-30T05:58:08;15.05;;;9.50;;
6823;SDS011;58633;49.470;11.004;2023-08-30T06:00:34;13.23;;;9.07;;
6823;SDS011;58633;49.470;11.004;2023-08-30T06:02:59;11.40;;;9.20;;
6823;SDS011;58633;49.470;11.004;2023-08-30T06:05:25;12.05;;;9.60;;
6823;SDS011;58633;49.470;11.004;2023-08-30T06:07:51;12.68;;;9.40;;
6823;SDS011;58633;49.470;11.004;2023-08-30T06:10:17;12.70;;;9.55;;
6823;SDS011;58633;49.470;11.004;2023-08-30T06:12:42;10.77;;;9.55;;
6823;SDS011;58633;49.470;11.004;2023-08-30T06:15:08;12.55;;;10.30;;
6823;SDS011;58633;49.470;11.004;2023-08-30T06:17:34;13.63;;;10.20;;
6823;SDS011;58633;49.470;11.004;2023-08-30T06:20:00;18.90;;;9.70;;
6823;SDS011;58633;49.470;11.004;2023-08-30T06:22:25;12.52;;;10.10;;
6823;SDS011;58633;49.470;11.004;2023-08-30T06:24:51;12.93;;;10.13;;
6823;SDS011;58633;49.470;11.004;2023-08-30T06:27:17;13.45;;;10.30;;
6823;SDS011;58633;49.470;11.004;2023-08-30T06:29:42;10.80;;;9.35;;
6823;SDS011;58633;49.470;11.004;2023-08-30T06:32:08;13.25;;;10.13;;
6823;SDS011;58633;49.470;11.004;2023-08-30T06:34:33;12.65;;;10.38;;
6823;SDS011;58633;49.470;11.004;2023-08-30T06:36:59;14.00;;;10.90;;
6823;SDS011;58633;49.470;11.004;2023-08-30T06:39:25;13.38;;;9.98;;
6823;SDS011;58633;49.470;11.004;2023-08-30T06:41:50;11.48;;;9.05;;
6823;SDS011;58633;49.470;11.004;2023-08-30T06:44:16;13.48;;;10.35;;
6823;SDS011;58633;49.470;11.004;2023-08-30T06:46:42;12.73;;;11.13;;
6823;SDS011;58633;49.470;11.004;2023-08-30T06:49:08;13.75;;;11.55;;
6823;SDS011;58633;49.470;11.004;2023-08-30T06:51:34;15.27;;;12.27;;
6823;SDS011;58633;49.470;11.004;2023-08-30T06:54:00;15.50;;;12.30;;
6823;SDS011;58633;49.470;11.004;2023-08-30T06:56:28;12.68;;;10.88;;
6823;SDS011;58633;49.470;11.004;2023-08-30T06:58:54;14.93;;;12.00;;
6823;SDS011;58633;49.470;11.004;2023-08-30T07:01:20;14.52;;;11.48;;
6823;SDS011;58633;49.470;11.004;2023-08-30T07:03:45;14.30;;;11.32;;
6823;SDS011;58633;49.470;11.004;2023-08-30T07:06:11;17.00;;;11.75;;
6823;SDS011;58633;49.470;11.004;2023-08-30T07:08:37;14.00;;;10.88;;
6823;SDS011;58633;49.470;11.004;2023-08-30T07:11:03;15.57;;;12.32;;
6823;SDS011;58633;49.470;11.004;2023-08-30T07:13:29;15.00;;;11.73;;
6823;SDS011;58633;49.470;11.004;2023-08-30T07:15:54;14.48;;;11.75;;
6823;SDS011;58633;49.470;11.004;2023-08-30T07:18:20;15.02;;;12.70;;
6823;SDS011;58633;49.470;11.004;2023-08-30T07:20:46;17.20;;;12.20;;
6823;SDS011;58633;49.470;11.004;2023-08-30T07:23:11;18.02;;;12.63;;
6823;SDS011;58633;49.470;11.004;2023-08-30T07:25:37;18.00;;;12.65;;
6823;SDS011;58633;49.470;11.004;2023-08-30T07:28:03;14.80;;;12.52;;
6823;SDS011;58633;49.470;11.004;2023-08-30T07:30:29;14.50;;;12.55;;
6823;SDS011;58633;49.470;11.004;2023-08-30T07:32:55;15.75;;;12.00;;
6823;SDS011;58633;49.470;11.004;2023-08-30T07:35:21;14.07;;;12.38;;
6823;SDS011;58633;49.470;11.004;2023-08-30T07:37:47;17.05;;;12.75;;
6823;SDS011;58633;49.470;11.004;2023-08-30T07:40:13;13.57;;;11.70;;
6823;SDS011;58633;49.470;11.004;2023-08-30T07:42:38;16.65;;;12.32;;
6823;SDS011;58633;49.470;11.004;2023-08-30T07:45:04;13.43;;;11.65;;
6823;SDS011;58633;49.470;11.004;2023-08-30T07:47:30;15.95;;;12.18;;
6823;SDS011;58633;49.470;11.004;2023-08-30T07:49:55;12.52;;;10.88;;
6823;SDS011;58633;49.470;11.004;2023-08-30T07:52:21;14.45;;;11.95;;
6823;SDS011;58633;49.470;11.004;2023-08-30T07:54:46;13.95;;;11.43;;
6823;SDS011;58633;49.470;11.004;2023-08-30T07:57:12;14.82;;;11.30;;
6823;SDS011;58633;49.470;11.004;2023-08-30T07:59:38;13.57;;;11.00;;
6823;SDS011;58633;49.470;11.004;2023-08-30T08:02:05;15.73;;;11.32;;
6823;SDS011;58633;49.470;11.004;2023-08-30T08:04:32;20.00;;;10.32;;
6823;SDS011;58633;49.470;11.004;2023-08-30T08:07:01;13.98;;;10.35;;
6823;SDS011;58633;49.470;11.004;2023-08-30T08:09:28;12.75;;;9.80;;
6823;SDS011;58633;49.470;11.004;2023-08-30T08:11:54;12.35;;;9.27;;
6823;SDS011;58633;49.470;11.004;2023-08-30T08:14:21;10.32;;;8.50;;
6823;SDS011;58633;49.470;11.004;2023-08-30T08:16:47;10.50;;;9.05;;
6823;SDS011;58633;49.470;11.004;2023-08-30T08:19:13;14.55;;;9.23;;
6823;SDS011;58633;49.470;11.004;2023-08-30T08:21:39;12.05;;;9.20;;
6823;SDS011;58633;49.470;11.004;2023-08-30T08:24:05;10.55;;;8.95;;
6823;SDS011;58633;49.470;11.004;2023-08-30T08:26:31;10.82;;;8.68;;
6823;SDS011;58633;49.470;11.004;2023-08-30T08:28:57;14.35;;;9.30;;
6823;SDS011;58633;49.470;11.004;2023-08-30T08:31:23;10.75;;;8.95;;
6823;SDS011;58633;49.470;11.004;2023-08-30T08:34:05;11.75;;;9.65;;
6823;SDS011;58633;49.470;11.004;2023-08-30T08:36:36;10.73;;;8.88;;
6823;SDS011;58633;49.470;11.004;2023-08-30T08:39:02;13.57;;;9.30;;
6823;SDS011;58633;49.470;11.004;2023-08-30T08:41:30;11.70;;;8.90;;
6823;SDS011;58633;49.470;11.004;2023-08-30T08:44:07;10.07;;;9.00;;
6823;SDS011;58633;49.470;11.004;2023-08-30T08:46:34;10.02;;;8.45;;
6823;SDS011;58633;49.470;11.004;2023-08-30T08:49:03;10.18;;;8.70;;
6823;SDS011;58633;49.470;11.004;2023-08-30T08:51:38;8.75;;;7.85;;
6823;SDS011;58633;49.470;11.004;2023-08-30T08:54:04;10.45;;;8.85;;
6823;SDS011;58633;49.470;11.004;2023-08-30T08:56:31;10.75;;;8.88;;
6823;SDS011;58633;49.470;11.004;2023-08-30T08:58:58;11.32;;;8.68;;
6823;SDS011;58633;49.470;11.004;2023-08-30T09:01:27;14.25;;;9.30;;
6823;SDS011;58633;49.470;11.004;2023-08-30T09:03:53;11.18;;;8.98;;
6823;SDS011;58633;49.470;11.004;2023-08-30T09:06:18;10.73;;;8.40;;
6823;SDS011;58633;49.470;11.004;2023-08-30T09:08:45;12.20;;;9.27;;
6823;SDS011;58633;49.470;11.004;2023-08-30T09:11:11;10.75;;;8.52;;
6823;SDS011;58633;49.470;11.004;2023-08-30T09:13:37;10.40;;;7.60;;
6823;SDS011;58633;49.470;11.004;2023-08-30T09:16:11;11.18;;;8.57;;
6823;SDS011;58633;49.470;11.004;2023-08-30T09:18:37;7.63;;;6.82;;
6823;SDS011;58633;49.470;11.004;2023-08-30T09:21:10;9.40;;;8.32;;
6823;SDS011;58633;49.470;11.004;2023-08-30T09:23:36;7.43;;;6.53;;
6823;SDS011;58633;49.470;11.004;2023-08-30T09:26:02;9.93;;;8.10;;
6823;SDS011;58633;49.470;11.004;2023-08-30T09:28:29;12.65;;;8.30;;
6823;SDS011;58633;49.470;11.004;2023-08-30T09:30:57;10.73;;;8.10;;
6823;SDS011;58633;49.470;11.004;2023-08-30T09:33:31;8.55;;;7.53;;
6823;SDS011;58633;49.470;11.004;2023-08-30T09:35:58;9.52;;;6.95;;
6823;SDS011;58633;49.470;11.004;2023-08-30T09:38:24;8.45;;;6.50;;
6823;SDS011;58633;49.470;11.004;2023-08-30T09:40:50;9.07;;;6.78;;
6823;SDS011;58633;49.470;11.004;2023-08-30T09:43:19;10.50;;;7.32;;
6823;SDS011;58633;49.470;11.004;2023-08-30T09:45:49;8.80;;;7.32;;
6823;SDS011;58633;49.470;11.004;2023-08-30T09:48:15;10.23;;;7.28;;
6823;SDS011;58633;49.470;11.004;2023-08-30T09:50:46;10.07;;;8.30;;
6823;SDS011;58633;49.470;11.004;2023-08-30T09:53:16;11.73;;;8.55;;
6823;SDS011;58633;49.470;11.004;2023-08-30T09:55:44;11.25;;;8.60;;
6823;SDS011;58633;49.470;11.004;2023-08-30T09:58:11;12.20;;;10.15;;
6823;SDS011;58633;49.470;11.004;2023-08-30T10:00:37;11.50;;;10.02;;
6823;SDS011;58633;49.470;11.004;2023-08-30T10:03:03;10.77;;;8.38;;
6823;SDS011;58633;49.470;11.004;2023-08-30T10:05:29;10.57;;;8.70;;
6823;SDS011;58633;49.470;11.004;2023-08-30T10:07:56;10.35;;;7.72;;
6823;SDS011;58633;49.470;11.004;2023-08-30T10:10:22;8.52;;;7.47;;
6823;SDS011;58633;49.470;11.004;2023-08-30T10:12:49;9.73;;;7.85;;
6823;SDS011;58633;49.470;11.004;2023-08-30T10:15:14;10.02;;;8.10;;
6823;SDS011;58633;49.470;11.004;2023-08-30T10:17:41;10.32;;;8.70;;
6823;SDS011;58633;49.470;11.004;2023-08-30T10:20:10;10.18;;;8.63;;
6823;SDS011;58633;49.470;11.004;2023-08-30T10:22:39;10.20;;;8.35;;
6823;SDS011;58633;49.470;11.004;2023-08-30T10:25:07;13.45;;;8.40;;
6823;SDS011;58633;49.470;11.004;2023-08-30T10:27:43;9.75;;;8.20;;
6823;SDS011;58633;49.470;11.004;2023-08-30T10:30:11;9.07;;;7.95;;
6823;SDS011;58633;49.470;11.004;2023-08-30T10:32:41;10.55;;;7.85;;
6823;SDS011;58633;49.470;11.004;2023-08-30T10:35:10;8.10;;;6.40;;
6823;SDS011;58633;49.470;11.004;2023-08-30T10:37:37;8.30;;;6.63;;
6823;SDS011;58633;49.470;11.004;2023-08-30T10:40:03;8.55;;;6.72;;
6823;SDS011;58633;49.470;11.004;2023-08-30T10:42:30;9.38;;;7.45;;
6823;SDS011;58633;49.470;11.004;2023-08-30T10:45:00;9.35;;;7.78;;
6823;SDS011;58633;49.470;11.004;2023-08-30T10:47:31;10.18;;;7.32;;
6823;SDS011;58633;49.470;11.004;2023-08-30T10:50:27;8.00;;;6.68;;
6823;SDS011;58633;49.470;11.004;2023-08-30T10:52:58;6.97;;;5.80;;
6823;SDS011;58633;49.470;11.004;2023-08-30T10:55:24;9.68;;;6.18;;
6823;SDS011;58633;49.470;11.004;2023-08-30T10:58:02;6.45;;;5.40;;
6823;SDS011;58633;49.470;11.004;2023-08-30T11:00:29;7.32;;;5.40;;
6823;SDS011;58633;49.470;11.004;2023-08-30T11:02:55;5.63;;;5.00;;
6823;SDS011;58633;49.470;11.004;2023-08-30T11:05:22;5.28;;;4.78;;
6823;SDS011;58633;49.470;11.004;2023-08-30T11:07:49;7.80;;;4.80;;
6823;SDS011;58633;49.470;11.004;2023-08-30T11:10:16;5.28;;;4.78;;
6823;SDS011;58633;49.470;11.004;2023-08-30T11:12:42;6.10;;;4.72;;
6823;SDS011;58633;49.470;11.004;2023-08-30T11:15:09;6.00;;;4.85;;
6823;SDS011;58633;49.470;11.004;2023-08-30T11:17:35;6.18;;;5.63;;
6823;SDS011;58633;49.470;11.004;2023-08-30T11:20:08;6.82;;;5.10;;
6823;SDS011;58633;49.470;11.004;2023-08-30T11:22:39;5.50;;;5.00;;
6823;SDS011;58633;49.470;11.004;2023-08-30T11:25:10;6.32;;;4.43;;
6823;SDS011;58633;49.470;11.004;2023-08-30T11:27:37;5.18;;;4.68;;
6823;SDS011;58633;49.470;11.004;2023-08-30T11:30:03;4.60;;;4.18;;
6823;SDS011;58633;49.470;11.004;2023-08-30T11:32:33;5.72;;;4.72;;
6823;SDS011;58633;49.470;11.004;2023-08-30T11:35:03;4.68;;;4.18;;
6823;SDS011;58633;49.470;11.004;2023-08-30T11:37:30;4.68;;;4.18;;
6823;SDS011;58633;49.470;11.004;2023-08-30T11:39:56;4.50;;;4.10;;
6823;SDS011;58633;49.470;11.004;2023-08-30T11:42:21;6.28;;;4.50;;
6823;SDS011;58633;49.470;11.004;2023-08-30T11:44:47;5.82;;;3.83;;
6823;SDS011;58633;49.470;11.004;2023-08-30T11:47:18;4.75;;;4.20;;
6823;SDS011;58633;49.470;11.004;2023-08-30T11:49:52;5.80;;;4.43;;
6823;SDS011;58633;49.470;11.004;2023-08-30T11:52:23;4.03;;;3.72;;
6823;SDS011;58633;49.470;11.004;2023-08-30T11:54:49;4.60;;;4.18;;
6823;SDS011;58633;49.470;11.004;2023-08-30T11:57:16;5.50;;;4.15;;
6823;SDS011;58633;49.470;11.004;2023-08-30T11:59:41;5.05;;;4.30;;
6823;SDS011;58633;49.470;11.004;2023-08-30T12:02:07;4.38;;;3.97;;
6823;SDS011;58633;49.470;11.004;2023-08-30T12:04:43;4.30;;;3.90;;
6823;SDS011;58633;49.470;11.004;2023-08-30T12:07:25;6.63;;;3.90;;
6823;SDS011;58633;49.470;11.004;2023-08-30T12:09:51;4.68;;;4.00;;
6823;SDS011;58633;49.470;11.004;2023-08-30T12:12:17;4.10;;;3.67;;
6823;SDS011;58633;49.470;11.004;2023-08-30T12:14:43;4.32;;;3.72;;
6823;SDS011;58633;49.470;11.004;2023-08-30T12:17:08;4.50;;;4.10;;
6823;SDS011;58633;49.470;11.004;2023-08-30T12:19:37;4.80;;;4.40;;
6823;SDS011;58633;49.470;11.004;2023-08-30T12:22:05;4.93;;;4.30;;
6823;SDS011;58633;49.470;11.004;2023-08-30T12:24:42;5.10;;;4.57;;
6823;SDS011;58633;49.470;11.004;2023-08-30T12:27:08;5.45;;;4.60;;
6823;SDS011;58633;49.470;11.004;2023-08-30T12:29:34;4.40;;;4.00;;
6823;SDS011;58633;49.470;11.004;2023-08-30T12:32:00;5.88;;;4.47;;
6823;SDS011;58633;49.470;11.004;2023-08-30T12:34:26;4.05;;;3.65;;
6823;SDS011;58633;49.470;11.004;2023-08-30T12:36:51;4.80;;;4.40;;
6823;SDS011;58633;49.470;11.004;2023-08-30T12:39:17;4.15;;;3.75;;
6823;SDS011;58633;49.470;11.004;2023-08-30T12:41:42;5.95;;;4.60;;
6823;SDS011;58633;49.470;11.004;2023-08-30T12:44:08;4.18;;;3.78;;
6823;SDS011;58633;49.470;11.004;2023-08-30T12:46:33;5.15;;;4.00;;
6823;SDS011;58633;49.470;11.004;2023-08-30T12:48:59;4.93;;;4.22;;
6823;SDS011;58633;49.470;11.004;2023-08-30T12:51:24;5.70;;;4.05;;
6823;SDS011;58633;49.470;11.004;2023-08-30T12:53:50;4.65;;;4.22;;
6823;SDS011;58633;49.470;11.004;2023-08-30T12:56:15;4.25;;;3.80;;
6823;SDS011;58633;49.470;11.004;2023-08-30T12:58:41;5.18;;;4.18;;
6823;SDS011;58633;49.470;11.004;2023-08-30T13:01:06;4.35;;;3.95;;
6823;SDS011;58633;49.470;11.004;2023-08-30T13:03:32;4.50;;;3.80;;
6823;SDS011;58633;49.470;11.004;2023-08-30T13:05:57;5.32;;;3.80;;
6823;SDS011;58633;49.470;11.004;2023-08-30T13:08:23;3.90;;;3.47;;
6823;SDS011;58633;49.470;11.004;2023-08-30T13:10:49;4.22;;;3.80;;
6823;SDS011;58633;49.470;11.004;2023-08-30T13:13:15;3.70;;;3.40;;
6823;SDS011;58633;49.470;11.004;2023-08-30T13:15:40;4.18;;;3.80;;
6823;SDS011;58633;49.470;11.004;2023-08-30T13:18:06;4.10;;;3.70;;
6823;SDS011;58633;49.470;11.004;2023-08-30T13:20:31;5.00;;;3.88;;
6823;SDS011;58633;49.470;11.004;2023-08-30T13:22:57;4.00;;;3.60;;
6823;SDS011;58633;49.470;11.004;2023-08-30T13:25:22;4.65;;;3.88;;
6823;SDS011;58633;49.470;11.004;2023-08-30T13:27:48;4.05;;;3.40;;
6823;SDS011;58633;49.470;11.004;2023-08-30T13:30:13;4.50;;;3.30;;
6823;SDS011;58633;49.470;11.004;2023-08-30T13:32:39;3.50;;;3.20;;
6823;SDS011;58633;49.470;11.004;2023-08-30T13:35:05;3.80;;;3.42;;
6823;SDS011;58633;49.470;11.004;2023-08-30T13:37:30;3.47;;;3.17;;
6823;SDS011;58633;49.470;11.004;2023-08-30T13:39:56;3.47;;;3.17;;
6823;SDS011;58633;49.470;11.004;2023-08-30T13:42:22;3.92;;;3.60;;
6823;SDS011;58633;49.470;11.004;2023-08-30T13:44:50;3.60;;;3.28;;
6823;SDS011;58633;49.470;11.004;2023-08-30T13:47:16;4.38;;;3.60;;
6823;SDS011;58633;49.470;11.004;2023-08-30T13:49:41;3.30;;;3.10;;
6823;SDS011;58633;49.470;11.004;2023-08-30T13:52:07;3.30;;;3.10;;
6823;SDS011;58633;49.470;11.004;2023-08-30T13:54:32;4.20;;;2.92;;
6823;SDS011;58633;49.470;11.004;2023-08-30T13:56:58;3.38;;;3.08;;
6823;SDS011;58633;49.470;11.004;2023-08-30T13:59:24;3.53;;;3.22;;
6823;SDS011;58633;49.470;11.004;2023-08-30T14:01:49;3.67;;;3.38;;
6823;SDS011;58633;49.470;11.004;2023-08-30T14:04:15;3.78;;;3.40;;
6823;SDS011;58633;49.470;11.004;2023-08-30T14:06:40;4.03;;;3.20;;
6823;SDS011;58633;49.470;11.004;2023-08-30T14:09:06;3.97;;;3.40;;
6823;SDS011;58633;49.470;11.004;2023-08-30T14:11:33;3.78;;;3.47;;
6823;SDS011;58633;49.470;11.004;2023-08-30T14:14:00;3.70;;;3.40;;
6823;SDS011;58633;49.470;11.004;2023-08-30T14:16:26;3.35;;;3.00;;
6823;SDS011;58633;49.470;11.004;2023-08-30T14:18:52;3.20;;;3.00;;
6823;SDS011;58633;49.470;11.004;2023-08-30T14:21:17;2.90;;;2.70;;
6823;SDS011;58633;49.470;11.004;2023-08-30T14:23:43;4.18;;;3.25;;
6823;SDS011;58633;49.470;11.004;2023-08-30T14:26:08;3.17;;;2.53;;
6823;SDS011;58633;49.470;11.004;2023-08-30T14:28:34;2.80;;;2.60;;
6823;SDS011;58633;49.470;11.004;2023-08-30T14:31:01;3.55;;;3.25;;
6823;SDS011;58633;49.470;11.004;2023-08-30T14:33:27;3.35;;;2.90;;
6823;SDS011;58633;49.470;11.004;2023-08-30T14:35:52;3.00;;;2.70;;
6823;SDS011;58633;49.470;11.004;2023-08-30T14:38:19;2.78;;;2.58;;
6823;SDS011;58633;49.470;11.004;2023-08-30T14:40:53;4.18;;;2.55;;
6823;SDS011;58633;49.470;11.004;2023-08-30T14:43:28;3.00;;;2.80;;